createdAt,value
2023-04-11T00:00:16.667Z,3.40
2023-04-11T00:02:44.743Z,3.54
2023-04-11T00:05:12.173Z,3.70
2023-04-11T00:07:39.744Z,3.85
2023-04-11T00:10:07.930Z,3.96
2023-04-11T00:12:34.988Z,4.12
2023-04-11T00:15:02.197Z,4.27
2023-04-11T00:17:31.488Z,4.46
2023-04-11T00:20:01.326Z,4.57
2023-04-11T00:22:30.240Z,4.72
2023-04-11T00:24:57.654Z,4.88
2023-04-11T00:27:25.182Z,5.05
2023-04-11T00:29:57.615Z,5.17
2023-04-11T00:32:25.084Z,5.44
2023-04-11T00:34:52.600Z,5.69
2023-04-11T00:37:22.222Z,5.96
2023-04-11T00:39:55.720Z,6.66
2023-04-11T00:42:23.104Z,7.44
2023-04-11T00:44:51.024Z,7.45
2023-04-11T00:47:19.052Z,7.41
2023-04-11T00:49:46.369Z,7.44
2023-04-11T00:52:13.537Z,7.49
2023-04-11T00:54:41.068Z,7.50
2023-04-11T00:57:08.617Z,7.49
2023-04-11T00:59:36.268Z,7.54
2023-04-11T01:02:03.461Z,7.61
2023-04-11T01:04:30.538Z,7.60
2023-04-11T01:07:04.056Z,7.51
2023-04-11T01:09:32.978Z,7.46
2023-04-11T01:12:01.118Z,7.34
2023-04-11T01:14:28.499Z,7.24
2023-04-11T01:17:02.306Z,7.17
2023-04-11T01:19:30.572Z,7.25
2023-04-11T01:21:58.253Z,7.81
2023-04-11T01:24:25.735Z,9.96
2023-04-11T01:26:53.277Z,12.17
2023-04-11T01:29:21.251Z,14.03
2023-04-11T01:31:49.632Z,15.44
2023-04-11T01:34:17.594Z,16.68
2023-04-11T01:36:44.647Z,17.55
2023-04-11T01:39:11.940Z,18.16
2023-04-11T01:41:39.613Z,18.63
2023-04-11T01:44:06.994Z,18.80
2023-04-11T01:46:34.525Z,18.68
2023-04-11T01:49:02.412Z,18.80
2023-04-11T01:51:29.836Z,18.97
2023-04-11T01:53:57.246Z,19.30
2023-04-11T01:56:24.625Z,19.63
2023-04-11T01:58:51.776Z,20.12
2023-04-11T02:01:20.015Z,20.38
2023-04-11T02:03:47.777Z,20.73
2023-04-11T02:06:15.832Z,20.78
2023-04-11T02:08:45.985Z,21.08
2023-04-11T02:11:13.728Z,21.09
2023-04-11T02:13:40.796Z,21.15
2023-04-11T02:16:10.029Z,21.32
2023-04-11T02:18:37.353Z,20.80
2023-04-11T02:21:05.590Z,20.37
2023-04-11T02:23:33.681Z,20.14
2023-04-11T02:26:01.772Z,19.95
2023-04-11T02:28:29.584Z,19.73
2023-04-11T02:30:57.111Z,19.52
2023-04-11T02:33:24.226Z,19.44
2023-04-11T02:35:51.958Z,19.33
2023-04-11T02:38:19.513Z,19.62
2023-04-11T02:40:46.716Z,19.88
2023-04-11T02:43:14.244Z,20.09
2023-04-11T02:45:41.904Z,19.94
2023-04-11T02:48:10.718Z,19.76
2023-04-11T02:50:43.256Z,19.64
2023-04-11T02:53:11.599Z,19.43
2023-04-11T02:55:45.743Z,19.33
2023-04-11T02:58:17.702Z,19.22
2023-04-11T03:00:48.931Z,19.12
2023-04-11T03:03:16.957Z,18.88
2023-04-11T03:05:46.809Z,18.70
2023-04-11T03:08:16.913Z,18.51
2023-04-11T03:10:50.399Z,18.32
2023-04-11T03:13:17.754Z,18.30
2023-04-11T03:15:45.473Z,18.30
2023-04-11T03:18:13.838Z,18.34
2023-04-11T03:20:45.406Z,18.48
2023-04-11T03:23:15.314Z,18.46
2023-04-11T03:25:44.271Z,18.38
2023-04-11T03:28:12.503Z,18.30
2023-04-11T03:30:40.879Z,18.33
2023-04-11T03:33:09.920Z,18.39
2023-04-11T03:35:37.174Z,18.37
2023-04-11T03:38:04.459Z,18.39
2023-04-11T03:40:31.906Z,18.57
2023-04-11T03:43:19.440Z,18.63
2023-04-11T03:45:47.172Z,18.78
2023-04-11T03:48:26.396Z,18.91
2023-04-11T03:51:04.564Z,19.03
2023-04-11T03:53:52.346Z,19.01
2023-04-11T03:56:40.561Z,19.12
2023-04-11T03:59:14.313Z,19.16
2023-04-11T04:01:55.900Z,19.27
2023-04-11T04:04:23.288Z,19.45
2023-04-11T04:07:02.284Z,19.44
2023-04-11T04:09:36.560Z,19.28
2023-04-11T04:12:04.760Z,19.07
2023-04-11T04:15:01.364Z,18.87
2023-04-11T04:17:28.667Z,18.85
2023-04-11T04:19:56.480Z,18.83
2023-04-11T04:22:26.290Z,18.73
2023-04-11T04:24:57.890Z,18.66
2023-04-11T04:27:30.603Z,18.77
2023-04-11T04:30:01.702Z,18.94
2023-04-11T04:32:54.372Z,18.85
2023-04-11T04:35:23.004Z,18.87
2023-04-11T04:37:50.682Z,18.93
2023-04-11T04:40:31.711Z,18.80
2023-04-11T04:43:08.824Z,18.77
2023-04-11T04:45:42.171Z,18.89
2023-04-11T04:48:10.222Z,18.96
2023-04-11T04:50:38.287Z,18.91
2023-04-11T04:53:06.820Z,18.97
2023-04-11T04:55:35.890Z,19.00
2023-04-11T04:58:03.839Z,18.99
2023-04-11T05:00:31.288Z,19.03
2023-04-11T05:03:05.270Z,19.18
2023-04-11T05:05:33.278Z,19.12
2023-04-11T05:08:01.022Z,18.92
2023-04-11T05:10:29.715Z,18.81
2023-04-11T05:12:56.788Z,18.66
2023-04-11T05:15:24.463Z,18.56
2023-04-11T05:17:51.674Z,18.56
2023-04-11T05:20:20.032Z,18.77
2023-04-11T05:22:49.991Z,18.93
2023-04-11T05:25:18.849Z,19.16
2023-04-11T05:27:46.487Z,19.39
2023-04-11T05:30:14.386Z,19.56
2023-04-11T05:32:42.840Z,19.51
2023-04-11T05:35:10.772Z,19.44
2023-04-11T05:37:51.490Z,19.40
2023-04-11T05:40:19.046Z,19.29
2023-04-11T05:42:46.147Z,19.30
2023-04-11T05:45:13.548Z,19.30
2023-04-11T05:47:41.318Z,19.31
2023-04-11T05:50:10.053Z,19.31
2023-04-11T05:52:37.199Z,19.37
2023-04-11T05:55:05.724Z,19.50
2023-04-11T05:57:33.082Z,19.65
2023-04-11T06:00:02.095Z,19.67
2023-04-11T06:02:41.620Z,19.62
2023-04-11T06:05:11.462Z,19.72
2023-04-11T06:07:39.368Z,19.86
2023-04-11T06:10:07.605Z,19.81
2023-04-11T06:12:34.767Z,19.76
2023-04-11T06:15:02.322Z,19.79
2023-04-11T06:17:29.800Z,19.82
2023-04-11T06:19:56.817Z,19.88
2023-04-11T06:22:24.208Z,20.00
2023-04-11T06:24:52.055Z,20.10
2023-04-11T06:27:19.212Z,20.15
2023-04-11T06:29:46.694Z,20.08
2023-04-11T06:32:13.739Z,19.86
2023-04-11T06:34:41.379Z,19.71
2023-04-11T06:37:08.938Z,19.70
2023-04-11T06:39:36.028Z,19.85
2023-04-11T06:42:03.505Z,19.95
2023-04-11T06:44:32.872Z,19.94
2023-04-11T06:47:00.070Z,19.91
2023-04-11T06:49:28.570Z,19.76
2023-04-11T06:51:55.845Z,19.57
2023-04-11T06:54:23.432Z,19.53
2023-04-11T06:56:51.526Z,19.60
2023-04-11T06:59:20.037Z,19.77
2023-04-11T07:01:47.392Z,19.73
2023-04-11T07:04:14.971Z,19.86
2023-04-11T07:06:42.512Z,19.82
2023-04-11T07:09:09.840Z,19.58
2023-04-11T07:11:38.709Z,19.56
2023-04-11T07:14:06.003Z,19.66
2023-04-11T07:16:33.369Z,19.50
2023-04-11T07:19:00.623Z,19.26
2023-04-11T07:21:28.412Z,19.28
2023-04-11T07:23:56.438Z,19.30
2023-04-11T07:26:24.033Z,19.27
2023-04-11T07:28:51.073Z,19.31
2023-04-11T07:31:21.681Z,19.37
2023-04-11T07:33:49.062Z,19.22
2023-04-11T07:36:16.656Z,19.02
2023-04-11T07:38:44.011Z,18.88
2023-04-11T07:41:11.040Z,18.69
2023-04-11T07:43:38.297Z,18.62
2023-04-11T07:46:06.699Z,18.50
2023-04-11T07:48:34.066Z,18.46
2023-04-11T07:51:01.314Z,18.41
2023-04-11T07:53:30.895Z,18.31
2023-04-11T07:55:58.287Z,18.23
2023-04-11T07:58:25.366Z,18.14
2023-04-11T08:00:53.332Z,18.01
2023-04-11T08:03:20.935Z,18.00
2023-04-11T08:05:48.154Z,17.88
2023-04-11T08:08:16.319Z,17.91
2023-04-11T08:10:43.590Z,17.83
2023-04-11T08:13:11.322Z,17.68
2023-04-11T08:15:38.750Z,17.63
2023-04-11T08:18:06.456Z,17.67
2023-04-11T08:20:33.518Z,17.65
2023-04-11T08:23:06.178Z,17.70
2023-04-11T08:25:33.756Z,17.59
2023-04-11T08:28:01.100Z,17.46
2023-04-11T08:30:28.283Z,17.42
2023-04-11T08:32:55.720Z,17.32
2023-04-11T08:35:23.401Z,17.31
2023-04-11T08:37:51.046Z,17.30
2023-04-11T08:40:18.304Z,17.38
2023-04-11T08:42:45.742Z,17.43
2023-04-11T08:45:13.405Z,17.40
2023-04-11T08:47:41.981Z,17.29
2023-04-11T08:50:11.249Z,17.17
2023-04-11T08:52:39.180Z,16.99
2023-04-11T08:55:06.526Z,16.91
2023-04-11T08:57:37.760Z,16.78
2023-04-11T09:00:19.195Z,16.69
2023-04-11T09:03:03.416Z,16.63
2023-04-11T09:05:32.213Z,16.66
2023-04-11T09:08:00.717Z,16.55
2023-04-11T09:10:28.198Z,16.44
2023-04-11T09:12:55.729Z,16.43
2023-04-11T09:15:28.729Z,16.45
2023-04-11T09:17:58.178Z,16.43
2023-04-11T09:20:30.345Z,16.46
2023-04-11T09:22:58.783Z,16.39
2023-04-11T09:25:26.191Z,16.37
2023-04-11T09:28:09.740Z,16.35
2023-04-11T09:30:37.268Z,16.25
2023-04-11T09:33:24.312Z,16.26
2023-04-11T09:35:53.442Z,16.13
2023-04-11T09:38:30.830Z,16.06
2023-04-11T09:40:59.293Z,16.04
2023-04-11T09:43:27.152Z,15.91
2023-04-11T09:46:11.554Z,15.72
2023-04-11T09:48:46.658Z,15.68
2023-04-11T09:51:24.398Z,15.78
2023-04-11T09:53:59.895Z,15.89
2023-04-11T09:56:30.982Z,15.89
2023-04-11T09:58:59.582Z,15.91
2023-04-11T10:01:27.530Z,15.85
2023-04-11T10:03:55.620Z,15.73
2023-04-11T10:06:34.014Z,15.55
2023-04-11T10:09:12.003Z,15.28
2023-04-11T10:11:43.500Z,15.05
2023-04-11T10:14:38.513Z,14.86
2023-04-11T10:17:19.780Z,14.65
2023-04-11T10:19:51.111Z,14.44
2023-04-11T10:22:43.534Z,14.18
2023-04-11T10:25:21.616Z,13.96
2023-04-11T10:27:50.426Z,13.78
2023-04-11T10:30:18.266Z,13.69
2023-04-11T10:33:10.603Z,13.58
2023-04-11T10:35:55.919Z,13.34
2023-04-11T10:38:43.062Z,13.11
2023-04-11T10:41:16.490Z,12.98
2023-04-11T10:43:44.342Z,12.79
2023-04-11T10:46:22.250Z,12.62
2023-04-11T10:49:03.744Z,12.30
2023-04-11T10:51:32.597Z,12.07
2023-04-11T10:54:00.529Z,12.08
2023-04-11T10:56:57.642Z,12.18
2023-04-11T10:59:36.288Z,12.15
2023-04-11T11:02:03.635Z,12.13
2023-04-11T11:04:35.024Z,12.01
2023-04-11T11:07:04.303Z,11.75
2023-04-11T11:09:31.674Z,11.54
2023-04-11T11:12:12.187Z,11.40
2023-04-11T11:14:40.890Z,11.27
2023-04-11T11:17:08.989Z,11.13
2023-04-11T11:19:36.693Z,10.98
2023-04-11T11:22:04.445Z,10.89
2023-04-11T11:24:31.965Z,10.77
2023-04-11T11:26:59.502Z,10.73
2023-04-11T11:29:35.742Z,10.72
2023-04-11T11:32:03.569Z,10.69
2023-04-11T11:34:32.915Z,10.68
2023-04-11T11:37:01.560Z,10.67
2023-04-11T11:39:29.691Z,10.66
2023-04-11T11:41:57.482Z,10.64
2023-04-11T11:44:28.940Z,10.59
2023-04-11T11:47:06.929Z,10.57
2023-04-11T11:49:44.839Z,10.56
2023-04-11T11:52:13.177Z,10.53
2023-04-11T11:54:45.224Z,10.45
2023-04-11T11:57:20.052Z,10.36
2023-04-11T11:59:53.649Z,10.28
2023-04-11T12:02:23.555Z,10.23
2023-04-11T12:04:51.453Z,10.14
2023-04-11T12:07:22.892Z,10.08
2023-04-11T12:09:50.864Z,10.07
2023-04-11T12:12:19.171Z,10.02
2023-04-11T12:14:53.850Z,9.96
2023-04-11T12:17:21.139Z,9.89
2023-04-11T12:19:48.304Z,9.78
2023-04-11T12:22:15.722Z,9.74
2023-04-11T12:24:43.157Z,9.66
2023-04-11T12:27:12.550Z,9.60
2023-04-11T12:29:39.644Z,9.53
2023-04-11T12:32:06.970Z,9.44
2023-04-11T12:34:34.034Z,9.36
2023-04-11T12:37:01.519Z,9.24
2023-04-11T12:39:29.299Z,9.14
2023-04-11T12:41:59.737Z,9.04
2023-04-11T12:44:27.453Z,8.94
2023-04-11T12:46:54.621Z,8.85
2023-04-11T12:49:22.277Z,8.77
2023-04-11T12:51:49.760Z,8.67
2023-04-11T12:54:17.213Z,8.59
2023-04-11T12:56:44.441Z,8.49
2023-04-11T12:59:11.600Z,8.41
2023-04-11T13:01:38.810Z,8.36
2023-04-11T13:04:06.770Z,8.27
2023-04-11T13:06:34.113Z,8.20
2023-04-11T13:09:02.038Z,8.12
2023-04-11T13:11:29.651Z,8.01
2023-04-11T13:13:57.066Z,8.02
2023-04-11T13:16:24.657Z,8.05
2023-04-11T13:18:51.909Z,8.10
2023-04-11T13:21:19.441Z,8.16
2023-04-11T13:23:46.510Z,8.17
2023-04-11T13:26:13.868Z,8.14
2023-04-11T13:28:40.947Z,8.10
2023-04-11T13:31:11.219Z,8.04
2023-04-11T13:33:41.664Z,7.90
2023-04-11T13:36:10.032Z,7.84
2023-04-11T13:38:38.664Z,7.77
2023-04-11T13:41:06.532Z,7.71
2023-04-11T13:43:33.873Z,7.60
2023-04-11T13:46:01.318Z,7.57
2023-04-11T13:48:28.232Z,7.49
2023-04-11T13:50:57.616Z,7.43
2023-04-11T13:53:24.791Z,7.38
2023-04-11T13:55:52.142Z,7.33
2023-04-11T13:58:19.441Z,7.20
2023-04-11T14:00:46.650Z,7.14
2023-04-11T14:03:14.310Z,7.10
2023-04-11T14:05:41.829Z,7.11
2023-04-11T14:08:09.259Z,7.05
2023-04-11T14:10:36.654Z,6.96
2023-04-11T14:13:05.147Z,6.90
2023-04-11T14:15:32.980Z,6.86
2023-04-11T14:18:01.633Z,6.78
2023-04-11T14:20:28.886Z,6.66
2023-04-11T14:22:56.901Z,6.53
2023-04-11T14:25:23.861Z,6.42
2023-04-11T14:27:51.277Z,6.36
2023-04-11T14:30:18.676Z,6.30
2023-04-11T14:32:46.576Z,6.27
2023-04-11T14:35:14.280Z,6.18
2023-04-11T14:37:41.406Z,6.09
2023-04-11T14:40:10.945Z,6.00
2023-04-11T14:42:39.247Z,5.95
2023-04-11T14:45:07.664Z,5.90
2023-04-11T14:47:35.352Z,5.86
2023-04-11T14:50:02.512Z,5.80
2023-04-11T14:52:29.573Z,5.79
2023-04-11T14:54:56.683Z,5.77
2023-04-11T14:57:24.063Z,5.78
2023-04-11T14:59:51.389Z,5.78
2023-04-11T15:02:19.131Z,5.80
2023-04-11T15:04:46.651Z,5.79
2023-04-11T15:07:14.885Z,5.79
2023-04-11T15:09:42.796Z,5.80
2023-04-11T15:12:10.460Z,5.79
2023-04-11T15:14:37.660Z,5.79
2023-04-11T15:17:05.549Z,5.82
2023-04-11T15:19:32.598Z,5.83
2023-04-11T15:22:00.138Z,5.80
2023-04-11T15:24:27.369Z,5.86
2023-04-11T15:26:54.537Z,5.84
2023-04-11T15:29:21.598Z,5.89
2023-04-11T15:31:49.644Z,5.81
2023-04-11T15:34:16.730Z,5.77
2023-04-11T15:36:44.967Z,5.69
2023-04-11T15:39:12.696Z,5.62
2023-04-11T15:41:40.993Z,5.56
2023-04-11T15:44:08.025Z,5.53
2023-04-11T15:46:35.790Z,5.47
2023-04-11T15:49:03.534Z,5.46
2023-04-11T15:51:30.970Z,5.37
2023-04-11T15:53:58.316Z,5.28
2023-04-11T15:56:26.159Z,5.13
2023-04-11T15:58:53.511Z,4.97
2023-04-11T16:01:22.571Z,4.88
2023-04-11T16:03:50.072Z,4.80
2023-04-11T16:06:20.682Z,4.72
2023-04-11T16:08:47.857Z,4.66
2023-04-11T16:11:15.051Z,4.60
2023-04-11T16:13:43.825Z,4.49
2023-04-11T16:16:11.142Z,4.43
2023-04-11T16:18:38.752Z,4.41
2023-04-11T16:21:12.504Z,4.38
2023-04-11T16:23:39.686Z,4.37
2023-04-11T16:26:07.080Z,4.30
2023-04-11T16:28:34.113Z,4.25
2023-04-11T16:31:01.422Z,4.23
2023-04-11T16:33:28.851Z,4.24
2023-04-11T16:35:56.788Z,4.20
2023-04-11T16:38:24.262Z,4.19
2023-04-11T16:40:51.463Z,4.16
2023-04-11T16:43:18.681Z,4.07
2023-04-11T16:45:46.064Z,4.03
2023-04-11T16:48:13.414Z,4.04
2023-04-11T16:50:41.124Z,4.00
2023-04-11T16:53:08.370Z,3.97
2023-04-11T16:55:35.753Z,3.92
2023-04-11T16:58:03.011Z,3.87
2023-04-11T17:00:30.442Z,3.79
2023-04-11T17:02:58.725Z,3.72
2023-04-11T17:05:26.121Z,3.62
2023-04-11T17:07:53.733Z,3.59
2023-04-11T17:10:21.194Z,3.56
2023-04-11T17:12:48.471Z,3.53
2023-04-11T17:15:16.084Z,3.53
2023-04-11T17:17:44.120Z,3.51
2023-04-11T17:20:11.955Z,3.48
2023-04-11T17:22:41.076Z,3.42
2023-04-11T17:25:09.749Z,3.33
2023-04-11T17:27:37.466Z,3.29
2023-04-11T17:30:05.360Z,3.28
2023-04-11T17:32:34.726Z,3.27
2023-04-11T17:35:04.740Z,3.31
2023-04-11T17:37:32.427Z,3.33
2023-04-11T17:40:00.381Z,3.35
2023-04-11T17:42:27.797Z,3.44
2023-04-11T17:44:57.149Z,3.45
2023-04-11T17:47:26.504Z,3.51
2023-04-11T17:49:54.697Z,3.56
2023-04-11T17:52:22.073Z,3.60
2023-04-11T17:54:49.651Z,3.68
2023-04-11T17:57:18.188Z,3.74
2023-04-11T17:59:46.898Z,3.84
2023-04-11T18:02:14.030Z,3.95
2023-04-11T18:04:42.312Z,4.03
2023-04-11T18:07:09.845Z,4.14
2023-04-11T18:09:37.583Z,4.24
2023-04-11T18:12:05.156Z,4.35
2023-04-11T18:14:33.785Z,4.42
2023-04-11T18:17:00.905Z,4.44
2023-04-11T18:19:28.236Z,4.50
2023-04-11T18:21:56.060Z,4.56
2023-04-11T18:24:23.535Z,4.60
2023-04-11T18:26:51.232Z,4.59
2023-04-11T18:29:18.702Z,4.57
2023-04-11T18:31:46.457Z,4.59
2023-04-11T18:34:14.078Z,4.50
2023-04-11T18:36:42.036Z,4.34
2023-04-11T18:39:09.542Z,4.09
2023-04-11T18:41:36.846Z,3.86
2023-04-11T18:44:05.759Z,3.66
2023-04-11T18:46:35.025Z,3.44
2023-04-11T18:49:04.301Z,3.30
2023-04-11T18:51:32.173Z,3.24
2023-04-11T18:53:59.815Z,3.24
2023-04-11T18:56:26.917Z,3.18
2023-04-11T18:58:56.041Z,3.02
2023-04-11T19:01:26.356Z,2.84
2023-04-11T19:03:56.836Z,2.77
2023-04-11T19:06:24.794Z,2.73
2023-04-11T19:08:52.198Z,2.68
2023-04-11T19:11:19.684Z,2.56
2023-04-11T19:13:46.725Z,2.44
2023-04-11T19:16:14.458Z,2.40
2023-04-11T19:18:41.902Z,2.42
2023-04-11T19:21:09.027Z,2.45
2023-04-11T19:23:38.231Z,2.35
2023-04-11T19:26:05.865Z,2.33
2023-04-11T19:28:35.088Z,2.30
2023-04-11T19:31:02.734Z,2.25
2023-04-11T19:33:29.996Z,2.24
2023-04-11T19:35:57.413Z,2.22
2023-04-11T19:38:25.270Z,2.16
2023-04-11T19:40:52.483Z,2.10
2023-04-11T19:43:19.733Z,2.04
2023-04-11T19:45:47.204Z,1.98
2023-04-11T19:48:15.848Z,1.93
2023-04-11T19:50:42.840Z,1.91
2023-04-11T19:53:10.353Z,1.89
2023-04-11T19:55:37.351Z,1.86
2023-04-11T19:58:04.368Z,1.84
2023-04-11T20:00:35.871Z,1.87
2023-04-11T20:03:05.383Z,1.83
2023-04-11T20:05:33.077Z,1.74
2023-04-11T20:08:00.742Z,1.62
2023-04-11T20:10:28.478Z,1.52
2023-04-11T20:12:58.185Z,1.45
2023-04-11T20:15:25.391Z,1.37
2023-04-11T20:17:52.621Z,1.29
2023-04-11T20:20:19.976Z,1.22
2023-04-11T20:22:47.909Z,1.13
2023-04-11T20:25:15.271Z,1.06
2023-04-11T20:27:43.006Z,0.99
2023-04-11T20:30:10.715Z,0.92
2023-04-11T20:32:39.056Z,0.87
2023-04-11T20:35:08.335Z,0.87
2023-04-11T20:37:36.002Z,0.88
2023-04-11T20:40:07.395Z,0.87
2023-04-11T20:42:34.960Z,0.91
2023-04-11T20:45:10.502Z,0.88
2023-04-11T20:47:38.192Z,0.77
2023-04-11T20:50:10.475Z,0.65
2023-04-11T20:52:38.196Z,0.52
2023-04-11T20:55:05.868Z,0.37
2023-04-11T20:57:35.865Z,0.31
2023-04-11T21:00:13.586Z,0.23
2023-04-11T21:02:43.738Z,0.21
2023-04-11T21:05:11.781Z,0.22
2023-04-11T21:07:39.423Z,0.15
2023-04-11T21:10:07.516Z,0.11
2023-04-11T21:12:35.312Z,0.05
2023-04-11T21:15:03.979Z,0.00
2023-04-11T21:17:34.570Z,-0.06
2023-04-11T21:20:09.798Z,-0.12
2023-04-11T21:22:37.219Z,-0.20
2023-04-11T21:25:04.706Z,-0.22
2023-04-11T21:27:31.846Z,-0.25
2023-04-11T21:29:59.038Z,-0.26
2023-04-11T21:32:27.764Z,-0.24
2023-04-11T21:34:55.408Z,-0.20
2023-04-11T21:37:22.985Z,-0.20
2023-04-11T21:39:50.676Z,-0.19
2023-04-11T21:42:17.608Z,-0.16
2023-04-11T21:44:45.325Z,-0.17
2023-04-11T21:47:12.653Z,-0.18
2023-04-11T21:49:39.647Z,-0.16
2023-04-11T21:52:07.176Z,-0.18
2023-04-11T21:54:34.565Z,-0.26
2023-04-11T21:57:01.978Z,-0.36
2023-04-11T21:59:29.490Z,-0.41
2023-04-11T22:01:56.734Z,-0.45
2023-04-11T22:04:24.231Z,-0.50
2023-04-11T22:06:51.730Z,-0.51
2023-04-11T22:09:20.046Z,-0.55
2023-04-11T22:11:47.151Z,-0.57
2023-04-11T22:14:16.442Z,-0.62
2023-04-11T22:16:49.069Z,-0.70
2023-04-11T22:19:20.496Z,-0.70
2023-04-11T22:21:55.589Z,-0.73
2023-04-11T22:24:29.914Z,-0.85
2023-04-11T22:27:04.037Z,-0.93
2023-04-11T22:29:33.912Z,-0.95
2023-04-11T22:32:03.692Z,-0.95
2023-04-11T22:34:30.959Z,-0.97
2023-04-11T22:36:59.040Z,-0.97
2023-04-11T22:39:26.198Z,-1.00
2023-04-11T22:41:54.253Z,-0.95
2023-04-11T22:44:21.904Z,-0.88
2023-04-11T22:47:06.070Z,-0.74
2023-04-11T22:49:40.196Z,-0.71
2023-04-11T22:52:13.757Z,-0.77
2023-04-11T22:54:41.733Z,-0.77
2023-04-11T22:57:09.075Z,-0.77
2023-04-11T22:59:36.575Z,-0.80
2023-04-11T23:02:03.768Z,-0.83
2023-04-11T23:04:31.689Z,-0.85
2023-04-11T23:06:59.020Z,-0.79
2023-04-11T23:09:27.794Z,-0.75
2023-04-11T23:11:55.420Z,-0.68
2023-04-11T23:14:23.969Z,-0.63
2023-04-11T23:16:51.483Z,-0.57
2023-04-11T23:19:19.004Z,-0.49
2023-04-11T23:21:46.421Z,-0.43
2023-04-11T23:24:13.868Z,-0.34
2023-04-11T23:26:41.522Z,-0.33
2023-04-11T23:29:09.417Z,-0.23
2023-04-11T23:31:36.916Z,-0.18
2023-04-11T23:34:04.423Z,-0.14
2023-04-11T23:36:32.524Z,-0.11
2023-04-11T23:39:02.187Z,-0.01
2023-04-11T23:41:30.003Z,0.15
2023-04-11T23:43:57.429Z,0.28
2023-04-11T23:46:25.988Z,0.41
2023-04-11T23:48:53.659Z,0.55
2023-04-11T23:51:20.827Z,0.67
2023-04-11T23:53:48.243Z,0.74
2023-04-11T23:56:15.931Z,0.78
2023-04-11T23:58:43.023Z,0.86
